Time;durP1;ratioP1;P1;durP2;ratioP2;P2;SDS_P1;SDS_P2;PMS_P1;PMS_P2;Temp;Humidity;BMP_temperature;BMP_pressure;BME280_temperature;BME280_humidity;BME280_pressure;Samples;Min_cycle;Max_cycle;Signal;HPM_P1;HPM_P2
2022/04/04 00:01:18;;;;;;;44.88;5.80;;;;;;;13.36;57.18;101468.25;2064559;28;20517;-76
2022/04/04 00:02:41;;;;;;;40.50;5.88;;;;;;;13.40;57.05;101471.81;2074584;28;20216;-76
2022/04/04 00:04:03;;;;;;;41.20;4.43;;;;;;;13.45;56.92;101471.03;2077557;28;20042;-75
2022/04/04 00:05:27;;;;;;;21.63;4.55;;;;;;;13.48;56.82;101464.88;2082525;28;20125;-76
2022/04/04 00:06:50;;;;;;;34.03;5.00;;;;;;;13.49;56.84;101464.91;2063422;28;20045;-77
2022/04/04 00:08:13;;;;;;;28.90;5.13;;;;;;;13.52;56.79;101472.03;2064864;28;20072;-76
2022/04/04 00:09:35;;;;;;;25.20;3.90;;;;;;;13.53;56.68;101469.38;2076834;28;20509;-76
2022/04/04 00:10:57;;;;;;;40.10;6.50;;;;;;;13.56;56.76;101480.03;2075533;28;20042;-78
2022/04/04 00:12:22;;;;;;;24.77;4.25;;;;;;;13.55;56.64;101475.59;2083116;28;20045;-76
2022/04/04 00:13:45;;;;;;;29.17;4.45;;;;;;;13.49;56.73;101480.81;2071428;28;20053;-76
2022/04/04 00:15:09;;;;;;;31.27;3.40;;;;;;;13.43;56.73;101470.13;2082960;28;20136;-76
2022/04/04 00:16:32;;;;;;;25.35;4.32;;;;;;;13.36;57.05;101472.66;2076527;28;20065;-76
2022/04/04 00:17:55;;;;;;;29.55;4.57;;;;;;;13.33;57.28;101473.47;2068669;28;20037;-76
2022/04/04 00:19:17;;;;;;;32.20;4.45;;;;;;;13.33;57.32;101476.13;2073937;28;20045;-76
2022/04/04 00:20:42;;;;;;;32.13;5.10;;;;;;;13.33;57.33;101478.78;2068493;28;20054;-75
2022/04/04 00:22:06;;;;;;;33.17;5.72;;;;;;;13.34;57.38;101479.69;2072099;28;20120;-76
2022/04/04 00:23:27;;;;;;;26.13;5.32;;;;;;;13.34;57.28;101469.06;2063248;28;20164;-76
2022/04/04 00:24:50;;;;;;;31.83;5.20;;;;;;;13.33;57.35;101475.25;2066583;28;20046;-76
2022/04/04 00:26:12;;;;;;;32.75;5.32;;;;;;;13.30;57.24;101473.44;2074052;28;20044;-76
2022/04/04 00:27:36;;;;;;;29.05;4.50;;;;;;;13.28;57.42;101467.22;2070995;28;20387;-75
2022/04/04 00:28:59;;;;;;;33.65;4.22;;;;;;;13.26;57.25;101471.59;2066810;28;20072;-76
2022/04/04 00:30:21;;;;;;;35.50;4.55;;;;;;;13.28;57.35;101468.97;2065873;28;20390;-76
2022/04/04 00:31:43;;;;;;;;;;;;;;;13.29;57.32;101468.13;2075221;28;20050;-76
2022/04/04 00:33:06;;;;;;;35.45;5.07;;;;;;;13.25;57.27;101469.84;2077199;28;19921;-76
2022/04/04 00:34:29;;;;;;;24.73;3.75;;;;;;;13.24;57.15;101461.84;2074983;28;20083;-76
2022/04/04 00:35:52;;;;;;;33.58;4.45;;;;;;;13.23;57.19;101458.31;2084850;28;20135;-76
2022/04/04 00:37:15;;;;;;;25.17;4.78;;;;;;;13.24;57.13;101465.41;2078753;28;20132;-76
2022/04/04 00:38:36;;;;;;;23.55;4.20;;;;;;;13.25;57.28;101453.94;2078246;28;20144;-75
2022/04/04 00:40:00;;;;;;;27.52;6.15;;;;;;;13.23;57.20;101450.34;2076657;28;20421;-77
2022/04/04 00:41:22;;;;;;;36.40;4.68;;;;;;;13.22;57.26;101445.91;2069194;28;20042;-76
2022/04/04 00:42:45;;;;;;;27.48;4.20;;;;;;;13.25;57.22;101445.09;2086127;28;20056;-77
2022/04/04 00:44:09;;;;;;;37.03;5.40;;;;;;;13.24;57.35;101444.19;2080969;28;20052;-76
2022/04/04 00:45:31;;;;;;;24.38;4.70;;;;;;;13.26;57.35;101437.13;2077418;28;20077;-76
2022/04/04 00:46:54;;;;;;;26.85;4.00;;;;;;;13.26;57.19;101429.16;2067981;28;20073;-76
2022/04/04 00:48:17;;;;;;;31.33;4.65;;;;;;;13.27;57.18;101427.41;2066074;28;20053;-77
2022/04/04 00:49:41;;;;;;;36.30;6.40;;;;;;;13.26;57.23;101426.53;2061072;28;20104;-78
2022/04/04 00:51:04;;;;;;;32.40;4.78;;;;;;;13.26;57.13;101428.31;2067989;28;20065;-77
2022/04/04 00:52:26;;;;;;;29.48;5.28;;;;;;;13.25;57.18;101430.06;2067463;28;20042;-77
2022/04/04 00:53:49;;;;;;;22.33;4.25;;;;;;;13.23;57.30;101423.84;2075529;28;20600;-77
2022/04/04 00:55:12;;;;;;;23.13;4.72;;;;;;;13.19;57.32;101419.38;2075680;28;20516;-76
2022/04/04 00:56:36;;;;;;;32.38;5.50;;;;;;;13.13;57.45;101417.50;2068662;28;20529;-76
2022/04/04 00:58:01;;;;;;;20.00;3.40;;;;;;;13.10;57.50;101417.41;2069321;28;20149;-76
2022/04/04 00:59:24;;;;;;;28.10;4.30;;;;;;;13.09;57.54;101409.44;2067857;28;20091;-77
2022/04/04 01:00:49;;;;;;;21.45;3.60;;;;;;;13.12;57.52;101414.81;2082654;28;20055;-77
2022/04/04 01:02:11;;;;;;;26.20;3.78;;;;;;;13.11;57.52;101408.59;2071696;28;20034;-76
2022/04/04 01:03:34;;;;;;;24.77;4.55;;;;;;;13.13;57.44;101406.88;2068948;28;20437;-76
2022/04/04 01:04:56;;;;;;;25.90;5.30;;;;;;;13.13;57.23;101408.63;2068537;28;20041;-76
2022/04/04 01:06:19;;;;;;;18.98;2.60;;;;;;;13.11;57.36;101413.00;2066289;28;20046;-76
2022/04/04 01:07:40;;;;;;;19.40;3.25;;;;;;;13.07;57.28;101416.47;2073697;28;20049;-77
2022/04/04 01:09:04;;;;;;;34.17;5.35;;;;;;;13.02;57.33;101419.06;2075981;28;20053;-76
2022/04/04 01:10:28;;;;;;;21.17;3.17;;;;;;;13.02;57.31;101416.41;2068778;28;20038;-77
2022/04/04 01:12:07;;;;;;;17.38;2.28;;;;;;;13.05;57.15;101413.81;2082467;28;20055;-77
2022/04/04 01:13:31;;;;;;;23.23;4.57;;;;;;;13.08;57.08;101413.84;2067547;28;20151;-77
2022/04/04 01:14:54;;;;;;;24.40;2.58;;;;;;;13.10;56.76;101417.41;2068518;28;20046;-76
2022/04/04 01:16:17;;;;;;;12.98;2.55;;;;;;;13.11;56.71;101413.91;2065794;28;20101;-77
2022/04/04 01:17:38;;;;;;;18.33;2.55;;;;;;;13.13;56.46;101413.94;2066590;28;20525;-76
2022/04/04 01:19:01;;;;;;;16.13;2.10;;;;;;;13.16;56.26;101411.34;2066551;28;20042;-76
2022/04/04 01:20:23;;;;;;;13.07;2.30;;;;;;;13.17;56.11;101407.84;2060068;28;20487;-77
2022/04/04 01:21:46;;;;;;;7.13;2.40;;;;;;;13.19;55.92;101411.41;2068970;28;20058;-76
2022/04/04 01:23:09;;;;;;;9.13;1.52;;;;;;;13.19;55.69;101406.13;2066505;28;20136;-76
2022/04/04 01:24:32;;;;;;;11.30;2.67;;;;;;;13.23;55.46;101407.94;2076084;28;20041;-76
2022/04/04 01:25:55;;;;;;;10.32;2.17;;;;;;;13.22;55.30;101405.25;2070177;28;20084;-77
2022/04/04 01:27:16;;;;;;;11.13;1.73;;;;;;;13.20;55.26;101396.38;2068012;28;20038;-76
2022/04/04 01:28:41;;;;;;;15.40;2.47;;;;;;;13.22;55.11;101407.91;2075225;28;20069;-76
2022/04/04 01:30:03;;;;;;;10.52;2.47;;;;;;;13.23;55.04;101402.63;2072336;28;20046;-76
2022/04/04 01:31:26;;;;;;;13.52;2.50;;;;;;;13.23;55.00;101405.28;2072988;28;20044;-76
2022/04/04 01:32:49;;;;;;;12.32;2.97;;;;;;;13.20;55.02;101397.25;2081784;28;20092;-76
2022/04/04 01:34:11;;;;;;;14.07;4.32;;;;;;;13.09;55.13;101398.84;2080490;28;20045;-76
2022/04/04 01:35:38;;;;;;;20.05;2.38;;;;;;;12.97;55.44;101402.19;2078312;28;20045;-76
2022/04/04 01:37:00;;;;;;;17.75;2.50;;;;;;;12.84;55.62;101402.84;2070963;28;20088;-76
2022/04/04 01:38:22;;;;;;;18.58;3.15;;;;;;;12.74;55.86;101399.16;2075654;28;20437;-77
2022/04/04 01:39:47;;;;;;;28.30;4.78;;;;;;;12.71;55.82;101391.16;2074722;28;20045;-78
2022/04/04 01:41:10;;;;;;;22.55;3.47;;;;;;;12.74;55.74;101391.19;2072890;28;20961;-75
2022/04/04 01:42:33;;;;;;;21.65;2.75;;;;;;;12.84;55.54;101396.66;2076532;28;20083;-75
2022/04/04 01:43:55;;;;;;;17.23;3.42;;;;;;;12.92;55.28;101400.34;2076683;28;20472;-76
2022/04/04 01:46:23;;;;;;;;;;;;;;;12.99;55.00;101403.13;2072562;28;20493;-75
2022/04/04 01:47:00;;;;;;;33.03;6.25;;;;;;;12.99;54.91;101399.56;2079921;28;19928;-75
2022/04/04 01:48:23;;;;;;;;;;;;;;;12.99;54.78;101403.13;2072662;28;20137;-75
2022/04/04 01:49:45;;;;;;;20.30;3.17;;;;;;;12.98;54.79;101406.63;2075527;28;19921;-75
2022/04/04 01:51:07;;;;;;;16.75;3.65;;;;;;;13.01;54.85;101403.13;2070145;28;20706;-78
2022/04/04 01:52:31;;;;;;;18.58;2.63;;;;;;;13.01;54.83;101401.38;2066644;28;20112;-79
2022/04/04 01:53:53;;;;;;;21.88;3.22;;;;;;;12.99;54.91;101408.41;2066748;28;20061;-76
2022/04/04 01:55:18;;;;;;;17.25;5.38;;;;;;;12.95;54.90;101403.91;2074813;28;20378;-76
2022/04/04 01:56:43;;;;;;;14.20;1.60;;;;;;;12.93;54.77;101404.78;2072943;28;20517;-74
2022/04/04 01:58:06;;;;;;;12.77;1.70;;;;;;;12.94;54.75;101407.44;2077206;28;20041;-79
2022/04/04 01:59:29;;;;;;;24.80;2.30;;;;;;;12.94;54.62;101403.88;2077509;28;20489;-78
2022/04/04 02:00:52;;;;;;;19.38;3.38;;;;;;;12.93;54.52;101399.47;2072237;28;20046;-76
2022/04/04 02:02:14;;;;;;;13.77;2.97;;;;;;;12.95;54.73;101403.03;2069750;28;20374;-78
2022/04/04 02:03:37;;;;;;;16.23;2.30;;;;;;;12.97;54.57;101406.59;2063775;28;20124;-78
2022/04/04 02:05:00;;;;;;;23.13;3.97;;;;;;;12.99;54.74;101404.88;2075631;28;20041;-78
2022/04/04 02:06:22;;;;;;;25.98;4.25;;;;;;;13.02;54.68;101402.25;2070051;28;20038;-76
2022/04/04 02:07:45;;;;;;;23.08;5.32;;;;;;;12.98;54.71;101401.31;2074489;28;20057;-77
2022/04/04 02:09:09;;;;;;;19.75;2.80;;;;;;;12.91;54.82;101398.56;2078434;28;20030;-76
2022/04/04 02:10:32;;;;;;;15.70;2.70;;;;;;;12.83;54.97;101403.72;2077535;28;20057;-77
2022/04/04 02:11:55;;;;;;;18.73;2.58;;;;;;;12.80;55.04;101406.31;2069855;28;20091;-76
2022/04/04 02:13:17;;;;;;;18.35;3.15;;;;;;;12.84;55.09;101400.22;2068559;28;20065;-76
2022/04/04 02:14:43;;;;;;;19.30;3.17;;;;;;;12.83;55.14;101390.47;2076415;28;20053;-77
2022/04/04 02:16:05;;;;;;;20.48;2.95;;;;;;;12.91;54.98;101393.25;2068058;28;20473;-76
2022/04/04 02:17:29;;;;;;;18.10;2.30;;;;;;;12.94;54.96;101393.28;2066617;28;20133;-76
2022/04/04 02:18:53;;;;;;;17.33;3.00;;;;;;;12.97;54.73;101391.59;2076090;28;20116;-77
2022/04/04 02:20:14;;;;;;;21.83;3.90;;;;;;;13.02;54.67;101396.94;2069444;28;20125;-76
2022/04/04 02:21:37;;;;;;;17.83;2.85;;;;;;;13.04;54.60;101389.94;2067352;28;20132;-77
2022/04/04 02:23:00;;;;;;;7.88;1.73;;;;;;;13.06;54.64;101396.16;2070169;28;20473;-78
2022/04/04 02:24:23;;;;;;;13.82;2.13;;;;;;;13.08;54.46;101391.75;2069546;28;20053;-77
2022/04/04 02:25:47;;;;;;;10.00;1.63;;;;;;;13.10;54.22;101403.28;2074342;28;20057;-77
2022/04/04 02:27:10;;;;;;;28.98;3.67;;;;;;;13.04;54.43;101400.53;2078371;28;20118;-75
2022/04/04 02:28:32;;;;;;;18.63;3.83;;;;;;;13.04;54.47;101395.22;2076995;28;20124;-77
2022/04/04 02:29:55;;;;;;;19.38;3.25;;;;;;;13.04;54.63;101392.56;2078021;28;20049;-77
2022/04/04 02:31:18;;;;;;;21.90;3.20;;;;;;;13.03;54.60;101394.34;2069921;28;20398;-76
2022/04/04 02:32:40;;;;;;;22.13;3.00;;;;;;;13.02;54.73;101386.34;2068584;28;20141;-77
2022/04/04 02:34:02;;;;;;;25.38;3.58;;;;;;;13.03;54.77;101385.50;2064347;28;20054;-77
2022/04/04 02:35:26;;;;;;;26.00;3.42;;;;;;;13.03;54.79;101389.03;2064658;28;20058;-77
2022/04/04 02:36:49;;;;;;;23.42;3.00;;;;;;;13.02;54.92;101389.00;2070269;28;20077;-77
2022/04/04 02:38:13;;;;;;;26.27;4.05;;;;;;;13.03;55.06;101386.38;2066594;28;20457;-77
2022/04/04 02:39:36;;;;;;;22.20;3.50;;;;;;;13.03;55.05;101396.09;2065743;28;20069;-77
2022/04/04 02:41:00;;;;;;;22.70;3.08;;;;;;;13.05;55.09;101383.75;2067471;28;20050;-77
2022/04/04 02:42:23;;;;;;;26.45;3.67;;;;;;;13.06;55.10;101388.19;2083377;28;20087;-77
2022/04/04 02:43:46;;;;;;;25.00;2.95;;;;;;;13.06;55.04;101389.06;2073447;28;20045;-76
2022/04/04 02:45:08;;;;;;;22.58;3.05;;;;;;;13.00;55.06;101381.03;2083824;28;20427;-77
2022/04/04 02:46:31;;;;;;;32.25;4.43;;;;;;;12.86;55.24;101381.69;2077724;28;20525;-77
2022/04/04 02:47:53;;;;;;;20.83;3.22;;;;;;;12.69;55.69;101384.94;2076527;28;20049;-76
2022/04/04 02:49:16;;;;;;;26.27;3.60;;;;;;;12.57;56.07;101386.50;2083171;28;20535;-76
2022/04/04 02:50:38;;;;;;;32.92;4.60;;;;;;;12.56;56.18;101390.88;2071257;28;20053;-76
2022/04/04 02:52:00;;;;;;;24.80;4.50;;;;;;;12.62;56.17;101391.00;2075058;28;20113;-76
2022/04/04 02:53:23;;;;;;;18.45;2.92;;;;;;;12.67;56.02;101394.59;2077274;28;20532;-77
2022/04/04 02:54:46;;;;;;;15.00;3.72;;;;;;;12.72;55.92;101394.72;2081107;28;20068;-78
2022/04/04 02:57:50;;;;;;;20.80;2.80;;;;;;;12.76;55.67;101402.72;2071101;28;20481;-77
2022/04/04 02:59:12;;;;;;;17.92;3.10;;;;;;;12.76;55.78;101392.13;2077140;28;20072;-77
2022/04/04 03:00:34;;;;;;;25.75;3.17;;;;;;;12.77;55.79;101396.56;2071963;28;20545;-76
2022/04/04 03:01:57;;;;;;;27.00;4.47;;;;;;;12.81;55.64;101396.59;2075379;28;20053;-76
2022/04/04 03:03:19;;;;;;;25.08;3.38;;;;;;;12.84;55.63;101400.22;2076785;28;20049;-76
2022/04/04 03:04:42;;;;;;;11.50;2.60;;;;;;;12.87;55.43;101399.34;2076945;28;20045;-77
2022/04/04 03:06:04;;;;;;;22.92;3.67;;;;;;;12.90;55.34;101407.34;2066339;28;20395;-77
2022/04/04 03:07:27;;;;;;;25.58;4.25;;;;;;;12.91;55.32;101403.84;2072889;28;20069;-78
2022/04/04 03:08:50;;;;;;;20.45;3.53;;;;;;;12.93;55.28;101408.28;2069001;28;20952;-78
2022/04/04 03:10:13;;;;;;;19.88;2.97;;;;;;;12.94;55.29;101406.53;2069358;28;20121;-78
2022/04/04 03:11:37;;;;;;;21.98;3.17;;;;;;;12.92;55.36;101408.28;2074826;28;20602;-77
2022/04/04 03:13:00;;;;;;;20.85;2.90;;;;;;;12.90;55.35;101417.97;2063759;28;20042;-78
2022/04/04 03:14:23;;;;;;;17.90;2.55;;;;;;;12.89;55.52;101410.88;2068575;28;20061;-78
2022/04/04 03:15:44;;;;;;;19.92;4.60;;;;;;;12.88;55.54;101412.63;2069276;28;20056;-77
2022/04/04 03:17:07;;;;;;;18.27;2.75;;;;;;;12.88;55.63;101419.69;2073574;28;20060;-76
2022/04/04 03:18:29;;;;;;;22.75;3.10;;;;;;;12.87;55.69;101418.78;2077521;28;20041;-77
2022/04/04 03:19:52;;;;;;;20.67;4.22;;;;;;;12.84;55.67;101412.56;2073288;28;20224;-76
2022/04/04 03:21:14;;;;;;;11.20;2.17;;;;;;;12.81;55.82;101410.75;2077715;28;20049;-77
2022/04/04 03:22:38;;;;;;;18.48;2.70;;;;;;;12.78;55.86;101424.84;2083838;28;20049;-77
2022/04/04 03:24:01;;;;;;;13.93;2.05;;;;;;;12.74;55.84;101423.00;2075464;28;20034;-76
2022/04/04 03:25:23;;;;;;;14.18;2.03;;;;;;;12.70;55.97;101417.63;2074811;28;20057;-77
2022/04/04 03:26:48;;;;;;;17.33;3.75;;;;;;;12.68;56.06;101412.28;2071522;28;20054;-77
2022/04/04 03:28:11;;;;;;;22.63;3.50;;;;;;;12.69;56.21;101415.84;2073796;28;20398;-76
2022/04/04 03:29:33;;;;;;;;;;;;;;;12.71;56.06;101412.34;2069916;28;20052;-77
2022/04/04 03:30:56;;;;;;;22.90;4.50;;;;;;;12.70;56.09;101420.28;2082504;28;20380;-77
2022/04/04 03:32:17;;;;;;;20.33;3.35;;;;;;;12.67;56.02;101422.84;2070811;28;20083;-77
2022/04/04 03:33:41;;;;;;;21.08;2.85;;;;;;;12.64;56.11;101420.16;2072933;28;20567;-77
2022/04/04 03:35:04;;;;;;;25.67;5.13;;;;;;;12.53;56.25;101414.69;2069972;28;20064;-77
2022/04/04 03:36:27;;;;;;;25.92;5.05;;;;;;;12.46;56.47;101414.53;2068392;28;20054;-77
2022/04/04 03:37:52;;;;;;;21.52;3.42;;;;;;;12.47;56.60;101417.19;2075824;28;20929;-77
2022/04/04 03:39:16;;;;;;;17.83;3.40;;;;;;;12.50;56.65;101419.03;2069773;28;20093;-77
2022/04/04 03:40:38;;;;;;;25.25;3.50;;;;;;;12.53;56.54;101422.63;2068992;28;20062;-77
2022/04/04 03:42:02;;;;;;;22.13;4.40;;;;;;;12.57;56.44;101419.16;2066432;28;20125;-77
2022/04/04 03:43:26;;;;;;;21.15;4.15;;;;;;;12.57;56.45;101413.88;2074420;28;20505;-77
2022/04/04 03:44:47;;;;;;;14.07;2.55;;;;;;;12.56;56.36;101413.84;2069405;28;20058;-76
2022/04/04 03:46:11;;;;;;;20.10;2.95;;;;;;;12.49;56.54;101419.88;2067040;28;20461;-77
2022/04/04 03:47:33;;;;;;;12.55;1.88;;;;;;;12.43;56.72;101422.41;2075225;28;20060;-76
2022/04/04 03:48:56;;;;;;;13.70;3.35;;;;;;;12.39;56.63;101418.84;2073165;28;20053;-77
2022/04/04 03:50:20;;;;;;;30.23;4.00;;;;;;;12.40;56.72;101415.34;2080281;28;20046;-77
2022/04/04 03:51:43;;;;;;;21.08;4.85;;;;;;;12.42;56.79;101421.53;2071450;28;20077;-77
2022/04/04 03:53:06;;;;;;;17.10;2.83;;;;;;;12.47;56.63;101421.63;2065607;28;20045;-77
2022/04/04 03:54:30;;;;;;;15.70;3.38;;;;;;;12.48;56.59;101418.09;2066053;28;20513;-76
2022/04/04 03:55:53;;;;;;;21.27;2.67;;;;;;;12.47;56.43;101425.16;2066041;28;20084;-77
2022/04/04 03:57:16;;;;;;;20.88;2.90;;;;;;;12.48;56.35;101429.56;2060180;28;20678;-76
2022/04/04 03:58:39;;;;;;;13.38;2.10;;;;;;;12.47;56.49;101435.72;2074418;28;20139;-77
2022/04/04 04:00:01;;;;;;;20.02;2.85;;;;;;;12.44;56.52;101438.34;2069343;28;20056;-76
2022/04/04 04:01:27;;;;;;;15.32;3.55;;;;;;;12.43;56.58;101447.16;2083225;28;20521;-77
2022/04/04 04:02:49;;;;;;;20.25;2.92;;;;;;;12.41;56.74;101445.31;2083170;28;20041;-77
2022/04/04 04:04:11;;;;;;;;;;;;;;;12.38;56.71;101449.72;2080529;28;20831;-77
2022/04/04 04:05:33;;;;;;;20.23;3.13;;;;;;;12.35;56.79;101449.63;2075923;28;20317;-77
2022/04/04 04:06:55;;;;;;;20.90;4.05;;;;;;;12.39;56.80;101455.91;2075568;28;20132;-76
2022/04/04 04:08:17;;;;;;;18.52;2.75;;;;;;;12.44;56.71;101453.34;2075829;28;20687;-76
2022/04/04 04:09:39;;;;;;;18.90;3.00;;;;;;;12.49;56.74;101455.19;2069033;28;20482;-77
2022/04/04 04:11:01;;;;;;;20.38;2.83;;;;;;;12.53;56.60;101451.78;2061012;28;20178;-77
2022/04/04 04:12:26;;;;;;;15.30;3.15;;;;;;;12.59;56.58;101456.28;2058748;28;20669;-77
2022/04/04 04:13:49;;;;;;;21.88;3.42;;;;;;;12.63;56.57;101456.34;2058924;28;20081;-77
2022/04/04 04:15:14;;;;;;;11.18;2.83;;;;;;;12.67;56.61;101462.59;2066760;28;20073;-76
2022/04/04 04:16:38;;;;;;;8.93;2.63;;;;;;;12.66;56.51;101461.72;2078461;28;20103;-77
2022/04/04 04:18:01;;;;;;;13.27;2.65;;;;;;;12.65;56.65;101459.94;2068736;28;20457;-77
2022/04/04 04:21:04;;;;;;;32.35;4.25;;;;;;;12.63;56.71;101460.75;2071020;28;20780;-77
2022/04/04 04:22:25;;;;;;;18.00;3.17;;;;;;;12.64;56.88;101466.09;2081744;28;20044;-77
2022/04/04 04:23:49;;;;;;;30.25;2.90;;;;;;;12.68;56.90;101478.50;2071177;28;20050;-76
2022/04/04 04:25:10;;;;;;;18.30;3.05;;;;;;;12.69;56.80;101482.97;2066885;28;20066;-77
2022/04/04 04:26:33;;;;;;;22.90;2.50;;;;;;;12.71;56.71;101485.63;2064133;28;20049;-78
2022/04/04 04:28:02;;;;;;;18.98;3.58;;;;;;;12.68;56.59;101483.81;2068613;28;20136;-78
2022/04/04 04:29:24;;;;;;;21.70;3.42;;;;;;;12.65;56.62;101486.44;2069900;28;20038;-77
2022/04/04 04:30:47;;;;;;;26.10;3.88;;;;;;;12.71;56.58;101490.94;2069049;28;20061;-76
2022/04/04 04:32:08;;;;;;;17.42;2.63;;;;;;;12.80;56.54;101493.75;2074720;28;20080;-77
2022/04/04 04:33:31;;;;;;;10.05;2.00;;;;;;;12.87;56.50;101497.38;2079921;28;20501;-77
2022/04/04 04:34:53;;;;;;;12.25;2.30;;;;;;;12.90;56.45;101497.47;2073245;28;20108;-77
2022/04/04 04:36:15;;;;;;;;;;;;;;;12.95;56.30;101498.44;2067701;28;20061;-76
2022/04/04 04:37:40;;;;;;;15.43;2.05;;;;;;;12.92;56.18;101501.94;2072134;28;19951;-77
2022/04/04 04:39:02;;;;;;;16.02;4.22;;;;;;;12.96;56.21;101500.22;2070751;28;20038;-77
2022/04/04 04:40:26;;;;;;;30.50;5.07;;;;;;;13.01;56.14;101507.38;2065217;28;20049;-77
2022/04/04 04:41:48;;;;;;;12.85;3.15;;;;;;;13.06;56.11;101505.69;2073768;28;20053;-76
2022/04/04 04:43:13;;;;;;;24.00;3.35;;;;;;;13.14;56.06;101509.41;2069083;28;20050;-77
2022/04/04 04:44:34;;;;;;;17.55;4.38;;;;;;;13.17;56.00;101513.88;2068305;28;20044;-76
2022/04/04 04:45:57;;;;;;;;;;;;;;;13.22;55.97;101504.25;2067691;28;20053;-76
2022/04/04 04:47:18;;;;;;;26.45;6.22;;;;;;;13.28;55.94;101516.69;2075081;28;19929;-77
2022/04/04 04:48:41;;;;;;;32.63;8.60;;;;;;;13.35;55.78;101514.19;2066826;28;20045;-76
2022/04/04 04:50:04;;;;;;;40.17;8.77;;;;;;;13.44;55.65;101513.44;2066207;28;20065;-76
2022/04/04 04:51:28;;;;;;;26.38;6.70;;;;;;;13.57;55.60;101518.06;2077680;28;20045;-77
2022/04/04 04:52:51;;;;;;;20.40;4.78;;;;;;;13.66;55.42;101515.53;2071063;28;20049;-76
2022/04/04 04:54:13;;;;;;;32.85;5.55;;;;;;;13.73;55.17;101517.44;2066842;28;20512;-76
2022/04/04 04:55:36;;;;;;;22.65;5.70;;;;;;;13.83;54.95;101523.78;2074336;28;20458;-76
2022/04/04 04:56:58;;;;;;;17.48;3.22;;;;;;;13.91;55.03;101532.75;2071101;28;20056;-76
2022/04/04 04:58:23;;;;;;;11.98;2.95;;;;;;;14.00;54.86;101532.84;2076470;28;20513;-76
2022/04/04 04:59:45;;;;;;;10.57;2.72;;;;;;;14.03;54.75;101526.72;2072761;28;20046;-76
2022/04/04 05:01:10;;;;;;;21.77;2.67;;;;;;;14.00;54.72;101543.47;2067944;28;20145;-77
2022/04/04 05:02:34;;;;;;;18.27;2.22;;;;;;;14.00;54.81;101537.28;2075990;28;20050;-76
2022/04/04 05:03:55;;;;;;;15.00;2.90;;;;;;;14.06;54.81;101537.34;2069272;28;20049;-77
2022/04/04 05:05:18;;;;;;;19.95;2.63;;;;;;;14.21;54.85;101534.91;2072965;28;20052;-77
2022/04/04 05:06:41;;;;;;;19.15;3.90;;;;;;;14.37;54.72;101536.91;2066215;28;20478;-76
2022/04/04 05:08:04;;;;;;;17.55;3.83;;;;;;;14.53;54.65;101538.91;2066566;28;20049;-77
2022/04/04 05:09:27;;;;;;;20.25;5.53;;;;;;;14.68;54.45;101543.50;2075507;28;20052;-77
2022/04/04 05:10:50;;;;;;;16.45;3.17;;;;;;;14.79;54.25;101548.94;2075263;28;20041;-76
2022/04/04 05:12:14;;;;;;;19.30;3.55;;;;;;;14.87;54.18;101547.25;2085972;28;20045;-77
2022/04/04 05:13:38;;;;;;;13.50;4.43;;;;;;;14.94;54.20;101544.69;2080932;28;20521;-77
2022/04/04 05:14:59;;;;;;;19.38;3.72;;;;;;;15.04;54.29;101540.31;2077727;28;20493;-76
2022/04/04 05:16:28;;;;;;;19.92;3.53;;;;;;;15.18;54.20;101546.69;2076644;28;20073;-76
2022/04/04 05:17:52;;;;;;;18.20;3.50;;;;;;;15.33;54.08;101551.25;2078285;28;20422;-76
2022/04/04 05:19:17;;;;;;;26.63;3.67;;;;;;;15.47;54.05;101553.16;2070679;28;20667;-76
2022/04/04 05:20:39;;;;;;;27.25;6.32;;;;;;;15.59;53.78;101557.72;2070778;28;20104;-76
2022/04/04 05:22:03;;;;;;;33.40;13.10;;;;;;;15.71;53.73;101551.59;2068048;28;20049;-76
2022/04/04 05:23:26;;;;;;;49.35;17.85;;;;;;;15.80;53.41;101560.56;2068982;28;20086;-76
2022/04/04 05:24:49;;;;;;;59.72;25.75;;;;;;;15.87;53.42;101554.38;2075180;28;20100;-77
2022/04/04 05:26:12;;;;;;;74.63;29.42;;;;;;;16.00;53.25;101559.78;2081076;28;20516;-76
2022/04/04 05:27:36;;;;;;;74.45;30.48;;;;;;;16.11;53.28;101566.06;2077379;28;20041;-75
2022/04/04 05:29:01;;;;;;;68.93;29.10;;;;;;;16.22;53.27;101567.00;2068911;28;21699;-76
2022/04/04 05:30:27;;;;;;;65.70;25.83;;;;;;;16.27;53.11;101560.84;2075867;28;20129;-77
2022/04/04 05:31:49;;;;;;;62.08;25.30;;;;;;;16.32;53.20;101564.41;2072090;28;20066;-77
2022/04/04 05:33:14;;;;;;;64.80;25.70;;;;;;;16.38;53.23;101563.53;2071018;28;20397;-77
2022/04/04 05:34:37;;;;;;;54.05;20.73;;;;;;;16.43;53.11;101559.13;2068634;28;20050;-77
2022/04/04 05:36:00;;;;;;;72.50;22.48;;;;;;;16.49;53.06;101561.81;2067831;28;20526;-77
2022/04/04 05:37:25;;;;;;;64.10;19.35;;;;;;;16.55;52.87;101559.16;2074131;28;20489;-76
2022/04/04 05:38:50;;;;;;;57.17;19.67;;;;;;;16.66;52.84;101552.16;2069965;28;20074;-77
2022/04/04 05:40:14;;;;;;;59.97;19.27;;;;;;;16.78;52.59;101539.72;2080160;28;20580;-77
2022/04/04 05:41:37;;;;;;;52.13;17.48;;;;;;;16.89;52.27;101543.31;2070466;28;20049;-78
2022/04/04 05:43:00;;;;;;;58.97;18.45;;;;;;;17.00;52.12;101536.25;2069761;28;20068;-76
2022/04/04 05:44:28;;;;;;;47.53;17.77;;;;;;;17.16;52.13;101537.13;2074329;28;20040;-76
2022/04/04 05:45:51;;;;;;;58.50;17.02;;;;;;;17.27;52.06;101527.34;2085838;28;20467;-77
2022/04/04 05:47:20;;;;;;;58.20;19.10;;;;;;;17.40;51.96;101522.00;2072941;28;20129;-77
2022/04/04 05:48:43;;;;;;;54.70;17.92;;;;;;;17.57;51.77;101522.03;2070892;28;20042;-77
2022/04/04 05:50:07;;;;;;;67.57;22.17;;;;;;;17.73;51.93;101523.81;2067010;28;20050;-77
2022/04/04 05:51:31;;;;;;;101.10;31.15;;;;;;;17.90;51.85;101522.00;2067316;28;20041;-77
2022/04/04 05:52:54;;;;;;;105.95;33.78;;;;;;;18.07;51.42;101518.38;2075870;28;20064;-77
2022/04/04 05:54:17;;;;;;;115.43;32.92;;;;;;;18.21;50.95;101525.47;2076201;28;20049;-76
2022/04/04 05:55:40;;;;;;;110.80;37.30;;;;;;;18.37;50.54;101517.41;2079424;28;20077;-76
2022/04/04 05:57:02;;;;;;;103.15;34.22;;;;;;;18.51;50.25;101520.91;2071017;28;20422;-76
2022/04/04 05:58:24;;;;;;;104.70;36.97;;;;;;;18.66;50.14;101518.16;2070411;28;20073;-77
2022/04/04 05:59:48;;;;;;;114.32;38.90;;;;;;;18.81;49.79;101515.41;2075351;28;20049;-77
2022/04/04 06:01:11;;;;;;;118.15;46.05;;;;;;;18.97;49.66;101516.22;2077601;28;20042;-76
2022/04/04 06:02:37;;;;;;;84.20;27.58;;;;;;;19.14;49.46;101510.72;2077414;28;20140;-77
2022/04/04 06:04:00;;;;;;;64.68;20.00;;;;;;;19.26;49.05;101500.81;2066733;28;20054;-76
2022/04/04 06:05:23;;;;;;;60.35;18.35;;;;;;;19.39;48.75;101504.28;2067371;28;20065;-77
2022/04/04 06:06:46;;;;;;;138.05;52.53;;;;;;;19.54;48.38;101504.19;2074437;28;20076;-76
2022/04/04 06:08:10;;;;;;;104.10;38.67;;;;;;;19.70;47.89;101513.81;2078087;28;20137;-77
2022/04/04 06:09:33;;;;;;;66.25;22.60;;;;;;;19.82;47.58;101511.00;2075696;28;20548;-78
2022/04/04 06:10:57;;;;;;;62.85;20.52;;;;;;;19.96;47.38;101512.66;2070220;28;20133;-77
2022/04/04 06:12:20;;;;;;;69.00;23.88;;;;;;;20.10;47.20;101516.09;2065931;28;20088;-77
2022/04/04 06:13:43;;;;;;;50.03;17.30;;;;;;;20.24;46.99;101519.50;2070465;28;20505;-77
2022/04/04 06:15:08;;;;;;;69.32;19.38;;;;;;;20.36;46.71;101516.69;2069448;28;20237;-78
2022/04/04 06:16:30;;;;;;;80.00;31.38;;;;;;;20.45;46.32;101516.59;2074102;28;20037;-77
2022/04/04 06:17:53;;;;;;;54.47;16.55;;;;;;;20.58;45.72;101518.19;2070135;28;20057;-79
2022/04/04 06:19:16;;;;;;;33.63;11.65;;;;;;;20.74;45.13;101520.69;2075484;28;20657;-76
2022/04/04 06:20:39;;;;;;;37.80;10.85;;;;;;;20.83;44.76;101524.09;2069951;28;20698;-77
2022/04/04 06:22:04;;;;;;;29.95;7.95;;;;;;;20.96;44.60;101527.50;2068142;28;20057;-78
2022/04/04 06:23:28;;;;;;;34.70;7.65;;;;;;;21.06;44.03;101530.03;2069728;28;20049;-79
2022/04/04 06:24:49;;;;;;;33.63;8.25;;;;;;;21.14;43.79;101531.69;2065956;28;20042;-79
2022/04/04 06:26:13;;;;;;;29.58;8.77;;;;;;;21.19;43.10;101536.16;2071449;28;20533;-79